Time;durP1;ratioP1;P1;durP2;ratioP2;P2;SDS_P1;SDS_P2;PMS_P1;PMS_P2;Temp;Humidity;BMP_temperature;BMP_pressure;BME280_temperature;BME280_humidity;BME280_pressure;Samples;Min_cycle;Max_cycle;Signal;HPM_P1;HPM_P2
2021/08/18 00:06:34;;;;;;;21.25;16.60;;;;;;;22.61;74.70;100555.07;1735435;81;21059;-70
2021/08/18 00:09:01;;;;;;;22.52;17.52;;;;;;;22.59;74.92;100555.27;1735971;82;20902;-69
2021/08/18 00:11:30;;;;;;;18.55;16.30;;;;;;;22.57;75.16;100555.94;1735912;81;21525;-70
2021/08/18 00:13:58;;;;;;;19.15;16.35;;;;;;;22.56;75.25;100559.59;1735704;82;20891;-69
2021/08/18 00:16:27;;;;;;;19.15;17.00;;;;;;;22.53;75.28;100559.95;1735918;81;20943;-70
2021/08/18 00:18:54;;;;;;;24.72;17.77;;;;;;;22.48;75.33;100560.47;1735842;82;20941;-68
2021/08/18 00:21:23;;;;;;;18.48;16.50;;;;;;;22.44;75.58;100568.50;1735987;82;20847;-70
2021/08/18 00:23:52;;;;;;;19.23;16.60;;;;;;;22.41;75.73;100568.84;1735842;82;20858;-70
2021/08/18 00:26:26;;;;;;;20.88;17.05;;;;;;;22.38;75.83;100560.33;1735791;82;20973;-71
2021/08/18 00:28:48;;;;;;;22.58;17.65;;;;;;;22.33;76.01;100556.83;1735063;81;20982;-70
2021/08/18 00:31:16;;;;;;;21.60;16.23;;;;;;;22.26;76.20;100550.00;1735827;81;20918;-71
2021/08/18 00:33:42;;;;;;;19.75;16.32;;;;;;;22.24;76.36;100556.01;1735786;81;21328;-70
2021/08/18 00:36:11;;;;;;;23.67;16.97;;;;;;;22.20;76.45;100549.81;1735816;82;20910;-70
2021/08/18 00:38:38;;;;;;;20.85;17.15;;;;;;;22.17;76.64;100555.50;1735892;81;20915;-69
2021/08/18 00:41:05;;;;;;;20.32;16.55;;;;;;;22.13;76.87;100555.00;1735951;82;20977;-71
2021/08/18 00:43:31;;;;;;;17.75;15.55;;;;;;;22.11;77.03;100553.82;1735850;81;20921;-70
2021/08/18 00:45:58;;;;;;;18.98;16.02;;;;;;;22.08;77.07;100552.84;1735960;81;20922;-69
2021/08/18 00:48:27;;;;;;;17.77;15.90;;;;;;;22.08;77.15;100550.67;1735851;82;20894;-70
2021/08/18 00:50:55;;;;;;;17.77;15.85;;;;;;;22.06;77.20;100555.34;1735856;81;21458;-70
2021/08/18 00:53:22;;;;;;;19.27;17.32;;;;;;;22.03;77.33;100552.52;1735819;82;20989;-70
2021/08/18 00:55:48;;;;;;;22.65;16.82;;;;;;;22.00;77.28;100554.67;1735785;82;21503;-70
2021/08/18 00:58:15;;;;;;;22.30;17.70;;;;;;;21.96;77.25;100554.17;1735865;82;20974;-70
2021/08/18 01:00:42;;;;;;;20.12;17.82;;;;;;;21.90;77.33;100546.85;1735954;81;21126;-69
2021/08/18 01:03:09;;;;;;;26.55;17.55;;;;;;;21.85;77.43;100554.50;1736176;82;20981;-70
2021/08/18 01:05:36;;;;;;;20.08;16.70;;;;;;;21.80;77.62;100552.84;1735853;81;20957;-71
2021/08/18 01:08:03;;;;;;;22.77;18.40;;;;;;;21.76;77.79;100551.51;1735796;81;20907;-69
2021/08/18 01:10:34;;;;;;;18.85;16.90;;;;;;;21.71;78.04;100555.50;1735946;81;20918;-69
2021/08/18 01:13:03;;;;;;;21.55;17.15;;;;;;;21.67;78.14;100552.83;1736057;81;21117;-70
2021/08/18 01:15:29;;;;;;;21.00;15.85;;;;;;;21.62;78.25;100555.68;1735742;81;20965;-68
2021/08/18 01:18:00;;;;;;;20.00;17.70;;;;;;;21.56;78.32;100553.66;1735834;82;20989;-69
2021/08/18 01:20:36;;;;;;;19.15;17.07;;;;;;;21.52;78.57;100551.34;1735868;82;21001;-69
2021/08/18 01:23:11;;;;;;;23.22;18.60;;;;;;;21.49;78.80;100553.48;1735639;81;21395;-70
2021/08/18 01:25:41;;;;;;;24.52;17.65;;;;;;;21.43;79.14;100555.00;1735971;82;20997;-69
2021/08/18 01:30:33;;;;;;;20.75;16.57;;;;;;;21.42;79.57;100555.16;1798549;79;23213;-69
2021/08/18 01:33:05;;;;;;;24.55;17.20;;;;;;;21.32;79.65;100557.92;1758472;81;20916;-69
2021/08/18 01:35:35;;;;;;;21.30;17.02;;;;;;;21.29;79.87;100555.09;1758379;81;21810;-68
2021/08/18 01:38:05;;;;;;;20.95;17.85;;;;;;;21.27;79.99;100553.08;1758334;80;20868;-69
2021/08/18 01:40:32;;;;;;;20.02;17.75;;;;;;;21.24;80.12;100555.25;1758290;81;20865;-69
2021/08/18 01:43:01;;;;;;;19.50;17.45;;;;;;;21.22;80.24;100557.25;1758324;81;21374;-70
2021/08/18 01:45:31;;;;;;;18.17;16.25;;;;;;;21.18;80.30;100551.39;1758642;81;20880;-69
2021/08/18 01:47:58;;;;;;;19.70;17.17;;;;;;;21.17;80.43;100552.91;1758419;81;21821;-68
2021/08/18 01:50:26;;;;;;;22.55;17.85;;;;;;;21.15;80.59;100561.06;1758155;81;21424;-69
2021/08/18 01:52:55;;;;;;;23.73;18.65;;;;;;;21.12;80.66;100554.70;1758346;81;20928;-69
2021/08/18 01:55:24;;;;;;;20.12;15.80;;;;;;;21.10;80.65;100560.73;1758377;81;20932;-69
2021/08/18 01:57:52;;;;;;;19.20;15.18;;;;;;;21.08;80.68;100557.38;1758792;81;21135;-69
2021/08/18 02:00:19;;;;;;;21.10;17.37;;;;;;;21.05;80.59;100553.19;1758464;81;21518;-69
2021/08/18 02:02:45;;;;;;;18.25;15.83;;;;;;;21.01;80.59;100547.86;1758510;81;20967;-69
2021/08/18 02:05:12;;;;;;;19.35;16.82;;;;;;;20.97;80.57;100554.52;1758251;80;20900;-70
2021/08/18 02:07:40;;;;;;;18.52;15.93;;;;;;;20.93;80.60;100547.83;1758329;81;20943;-69
2021/08/18 02:10:11;;;;;;;23.98;17.80;;;;;;;20.89;80.64;100545.14;1758326;81;20905;-70
2021/08/18 02:12:40;;;;;;;22.30;16.80;;;;;;;20.87;80.70;100549.80;1758806;80;20916;-69
2021/08/18 02:15:11;;;;;;;20.77;16.90;;;;;;;20.84;81.02;100546.95;1758179;80;20968;-69
2021/08/18 02:17:40;;;;;;;18.95;15.78;;;;;;;20.80;81.30;100550.94;1758046;81;20951;-69
2021/08/18 02:20:10;;;;;;;22.50;16.70;;;;;;;20.78;81.51;100542.77;1758408;81;20932;-69
2021/08/18 02:22:37;;;;;;;20.82;18.42;;;;;;;20.76;81.64;100545.58;1758539;81;20924;-68
2021/08/18 02:25:06;;;;;;;19.48;17.45;;;;;;;20.74;81.68;100541.41;1758218;81;21365;-68
2021/08/18 02:27:34;;;;;;;18.87;16.15;;;;;;;20.72;81.69;100539.41;1758232;81;20881;-69
2021/08/18 02:30:03;;;;;;;19.50;17.02;;;;;;;20.68;81.57;100548.23;1758290;80;21353;-68
2021/08/18 02:32:30;;;;;;;22.45;17.23;;;;;;;20.65;81.50;100540.06;1758446;81;20864;-69
2021/08/18 02:34:57;;;;;;;19.48;17.10;;;;;;;20.62;81.61;100539.53;1758544;81;20881;-69
2021/08/18 02:37:23;;;;;;;24.25;17.27;;;;;;;20.59;81.69;100539.87;1758582;81;21031;-69
2021/08/18 02:39:50;;;;;;;23.77;17.50;;;;;;;20.58;81.86;100545.67;1758524;81;20877;-68
2021/08/18 02:42:18;;;;;;;22.80;18.57;;;;;;;20.57;81.98;100541.86;1758004;81;20976;-69
2021/08/18 02:44:47;;;;;;;20.85;17.27;;;;;;;20.56;82.00;100540.13;1757918;81;20885;-69
2021/08/18 02:47:14;;;;;;;31.07;17.90;;;;;;;20.55;82.06;100543.30;1758000;80;20872;-70
2021/08/18 02:49:42;;;;;;;23.30;16.95;;;;;;;20.54;82.03;100540.78;1757989;81;21964;-68
2021/08/18 02:52:10;;;;;;;26.37;18.98;;;;;;;20.53;81.86;100535.97;1757877;80;20881;-68
2021/08/18 02:54:36;;;;;;;22.22;17.45;;;;;;;20.52;81.77;100538.78;1758052;81;20983;-70
2021/08/18 02:57:04;;;;;;;20.32;17.77;;;;;;;20.49;81.75;100542.59;1757878;81;20872;-69
2021/08/18 02:59:32;;;;;;;23.67;16.42;;;;;;;20.48;81.74;100540.95;1758081;81;20888;-68
2021/08/18 03:01:59;;;;;;;21.95;18.57;;;;;;;20.44;81.83;100544.91;1758083;81;21616;-68
2021/08/18 03:04:26;;;;;;;21.05;18.48;;;;;;;20.41;81.89;100550.06;1757891;81;20916;-68
2021/08/18 03:06:54;;;;;;;18.65;16.48;;;;;;;20.38;81.89;100547.70;1757921;81;21460;-69
2021/08/18 03:09:24;;;;;;;21.93;17.23;;;;;;;20.36;81.90;100551.02;1758268;80;20881;-69
2021/08/18 03:11:53;;;;;;;25.57;17.98;;;;;;;20.36;81.94;100548.84;1758356;81;20923;-69
2021/08/18 03:14:20;;;;;;;26.65;17.10;;;;;;;20.37;82.05;100549.20;1758454;81;21104;-69
2021/08/18 03:16:49;;;;;;;21.42;16.12;;;;;;;20.37;82.15;100558.02;1757992;81;20904;-70
2021/08/18 03:19:15;;;;;;;24.57;16.67;;;;;;;20.38;82.16;100560.19;1758352;81;20944;-69
2021/08/18 03:21:44;;;;;;;31.48;18.42;;;;;;;20.39;82.23;100560.54;1758309;81;20936;-69
2021/08/18 03:24:11;;;;;;;39.33;17.75;;;;;;;20.39;82.21;100553.88;1757931;81;21050;-69
2021/08/18 03:26:39;;;;;;;23.18;16.32;;;;;;;20.40;82.11;100561.70;1757927;81;22030;-69
2021/08/18 03:29:07;;;;;;;21.27;15.90;;;;;;;20.41;82.03;100559.86;1757686;81;20932;-70
2021/08/18 03:31:36;;;;;;;20.97;15.60;;;;;;;20.41;82.03;100555.39;1758054;81;21378;-69
2021/08/18 03:34:03;;;;;;;19.45;16.55;;;;;;;20.44;82.04;100555.56;1758000;81;20881;-69
2021/08/18 03:36:30;;;;;;;23.67;17.95;;;;;;;20.46;82.04;100560.24;1758004;81;21378;-68
2021/08/18 03:38:59;;;;;;;20.95;16.67;;;;;;;20.48;82.04;100562.25;1757935;80;20924;-69
2021/08/18 03:41:25;;;;;;;18.42;15.30;;;;;;;20.51;81.98;100557.93;1757923;81;21532;-68
2021/08/18 03:43:53;;;;;;;19.92;14.68;;;;;;;20.56;81.89;100560.12;1757907;81;20884;-69
2021/08/18 03:46:20;;;;;;;20.08;15.40;;;;;;;20.60;81.81;100565.00;1758011;81;20924;-69
2021/08/18 03:48:47;;;;;;;25.30;17.87;;;;;;;20.65;81.58;100559.19;1758614;81;20940;-69
2021/08/18 03:51:14;;;;;;;26.02;15.38;;;;;;;20.70;81.58;100560.91;1757991;81;21255;-69
2021/08/18 03:53:40;;;;;;;17.30;15.43;;;;;;;20.75;81.38;100553.77;1757900;81;20924;-70
2021/08/18 03:56:09;;;;;;;21.05;15.13;;;;;;;20.79;81.24;100561.78;1757840;81;20955;-70
2021/08/18 03:58:37;;;;;;;18.12;16.30;;;;;;;20.86;81.13;100561.47;1758027;81;21405;-69
2021/08/18 04:01:06;;;;;;;20.45;15.53;;;;;;;20.91;81.10;100559.97;1757898;81;21350;-69
2021/08/18 04:03:33;;;;;;;22.20;15.48;;;;;;;20.97;80.99;100557.17;1757825;80;21173;-68
2021/08/18 04:06:01;;;;;;;16.30;14.60;;;;;;;21.04;80.84;100556.86;1757879;80;20880;-69
2021/08/18 04:08:28;;;;;;;22.30;15.50;;;;;;;21.12;80.77;100558.70;1757890;81;21361;-70
2021/08/18 04:10:56;;;;;;;19.05;14.75;;;;;;;21.19;80.68;100558.41;1757824;81;20964;-68
2021/08/18 04:13:23;;;;;;;24.10;15.95;;;;;;;21.28;80.51;100554.77;1757876;80;20888;-69
2021/08/18 04:15:52;;;;;;;20.27;14.90;;;;;;;21.38;80.44;100561.27;1757947;81;21115;-69
2021/08/18 04:18:20;;;;;;;28.80;16.07;;;;;;;21.48;80.29;100551.33;1757977;81;20920;-68
2021/08/18 04:20:47;;;;;;;25.80;16.52;;;;;;;21.58;80.04;100548.49;1758017;80;21489;-68
2021/08/18 04:23:14;;;;;;;33.63;23.62;;;;;;;21.69;79.64;100553.50;1757840;81;20900;-69
2021/08/18 04:25:42;;;;;;;25.48;18.73;;;;;;;21.80;79.43;100555.01;1758218;81;21330;-69
2021/08/18 04:28:09;;;;;;;29.52;19.57;;;;;;;21.92;79.25;100552.83;1757975;81;21502;-69
2021/08/18 04:30:36;;;;;;;29.80;19.82;;;;;;;22.07;78.98;100550.33;1749209;81;20995;-70
2021/08/18 04:33:03;;;;;;;42.25;24.98;;;;;;;22.22;78.86;100550.52;1744492;82;21359;-69
2021/08/18 04:35:30;;;;;;;46.02;26.35;;;;;;;22.37;78.60;100554.63;1744573;82;20972;-69
2021/08/18 04:37:57;;;;;;;56.33;26.87;;;;;;;22.50;78.33;100553.12;1744498;82;21462;-69
2021/08/18 04:40:23;;;;;;;52.17;24.95;;;;;;;22.63;78.08;100552.55;1744541;82;21751;-69
2021/08/18 04:42:51;;;;;;;69.87;29.27;;;;;;;22.79;77.80;100548.16;1744439;82;21446;-69
2021/08/18 04:45:17;;;;;;;60.83;35.55;;;;;;;22.93;77.39;100551.45;1744534;80;21073;-69
2021/08/18 04:47:44;;;;;;;62.55;37.67;;;;;;;23.10;77.03;100551.73;1744699;82;20916;-69
2021/08/18 04:50:14;;;;;;;44.20;25.68;;;;;;;23.26;76.47;100556.16;1744541;81;20873;-71
2021/08/18 04:52:43;;;;;;;44.05;28.85;;;;;;;23.46;75.57;100550.34;1744532;82;21229;-70
2021/08/18 04:55:12;;;;;;;73.25;37.65;;;;;;;23.71;75.17;100553.16;1744540;80;20901;-69
2021/08/18 04:57:39;;;;;;;62.50;37.50;;;;;;;23.95;74.54;100551.32;1744558;82;20933;-69
2021/08/18 05:00:07;;;;;;;55.52;33.53;;;;;;;24.25;73.83;100556.20;1744454;81;21004;-70
2021/08/18 05:02:34;;;;;;;64.05;36.35;;;;;;;24.66;72.65;100558.48;1744618;82;21404;-70
2021/08/18 05:05:03;;;;;;;57.30;28.87;;;;;;;25.16;71.34;100555.98;1744595;81;20877;-69
2021/08/18 05:07:30;;;;;;;48.25;26.65;;;;;;;25.78;69.65;100551.89;1744885;82;20976;-71
2021/08/18 05:09:57;;;;;;;36.30;21.33;;;;;;;26.43;67.89;100548.56;1744443;82;20869;-71
2021/08/18 05:12:24;;;;;;;27.98;17.75;;;;;;;27.04;66.07;100541.95;1744561;82;20995;-68
2021/08/18 05:14:51;;;;;;;36.35;18.25;;;;;;;27.64;64.16;100542.09;1744517;82;20877;-70
2021/08/18 05:17:18;;;;;;;26.12;16.67;;;;;;;28.19;62.72;100534.30;1744545;82;21127;-68
2021/08/18 05:19:46;;;;;;;31.65;15.60;;;;;;;28.73;60.67;100541.26;1744424;81;20877;-69
2021/08/18 05:22:13;;;;;;;27.17;16.70;;;;;;;29.28;58.71;100533.53;1744611;82;20912;-69
2021/08/18 05:24:42;;;;;;;28.55;15.25;;;;;;;29.77;57.37;100530.28;1744511;81;20901;-69
2021/08/18 05:27:10;;;;;;;21.77;14.00;;;;;;;30.25;56.40;100527.74;1744800;81;21041;-69
2021/08/18 05:29:36;;;;;;;26.05;13.58;;;;;;;30.70;54.83;100527.45;1745766;81;21516;-70
2021/08/18 05:32:04;;;;;;;23.40;14.25;;;;;;;31.12;54.02;100521.31;1757790;80;20920;-69
2021/08/18 05:34:31;;;;;;;23.18;13.58;;;;;;;31.52;52.78;100524.28;1757790;81;20852;-70
2021/08/18 05:36:58;;;;;;;21.20;12.78;;;;;;;31.88;51.67;100525.67;1758091;81;20924;-69
2021/08/18 05:39:25;;;;;;;26.30;12.55;;;;;;;32.24;50.21;100519.72;1758106;81;20975;-69
2021/08/18 05:41:52;;;;;;;19.32;12.93;;;;;;;32.51;48.75;100522.23;1757794;81;21389;-69
2021/08/18 05:44:19;;;;;;;19.25;12.03;;;;;;;32.69;48.06;100519.91;1757802;81;20928;-70
2021/08/18 05:46:45;;;;;;;19.85;12.50;;;;;;;32.81;47.28;100519.85;1758294;80;20927;-69
2021/08/18 05:49:20;;;;;;;14.15;11.33;;;;;;;32.93;46.44;100523.36;1757759;80;20999;-70
2021/08/18 05:51:40;;;;;;;16.65;11.15;;;;;;;33.04;45.69;100521.66;1757316;81;20845;-70
2021/08/18 05:54:08;;;;;;;14.73;11.05;;;;;;;33.12;45.38;100514.48;1757863;81;21145;-69
2021/08/18 05:56:34;;;;;;;14.45;10.90;;;;;;;33.21;45.41;100513.56;1757977;81;20830;-70
2021/08/18 05:59:03;;;;;;;17.30;13.30;;;;;;;33.45;45.00;100512.34;1757847;81;20884;-69
2021/08/18 06:01:30;;;;;;;15.20;12.13;;;;;;;33.72;44.03;100509.53;1758080;81;20920;-70
2021/08/18 06:03:57;;;;;;;20.37;12.68;;;;;;;33.89;43.71;100506.27;1757833;81;20983;-69
2021/08/18 06:06:24;;;;;;;13.85;11.65;;;;;;;33.96;43.33;100498.74;1758219;80;21098;-70
2021/08/18 06:08:51;;;;;;;19.35;12.23;;;;;;;34.04;42.80;100496.96;1757898;81;20885;-70
2021/08/18 06:11:18;;;;;;;16.27;12.53;;;;;;;34.17;43.04;100495.78;1757825;80;20967;-72
2021/08/18 06:13:45;;;;;;;19.87;12.68;;;;;;;34.33;42.87;100493.26;1757998;81;21521;-69
2021/08/18 06:16:13;;;;;;;15.55;13.08;;;;;;;34.52;42.49;100494.59;1757939;81;20904;-70
2021/08/18 06:18:41;;;;;;;22.05;12.98;;;;;;;34.71;41.90;100489.67;1758043;80;21542;-70
2021/08/18 06:21:10;;;;;;;22.02;13.98;;;;;;;34.95;40.97;100487.99;1758056;80;20829;-70
2021/08/18 06:23:38;;;;;;;22.70;12.63;;;;;;;35.20;40.34;100483.38;1758001;80;20943;-70
2021/08/18 06:26:05;;;;;;;25.55;13.70;;;;;;;35.44;40.35;100481.09;1758032;80;21493;-71
2021/08/18 06:28:34;;;;;;;20.05;14.18;;;;;;;35.64;40.00;100483.17;1758133;81;20908;-70
2021/08/18 06:31:01;;;;;;;16.48;12.25;;;;;;;35.80;39.84;100480.84;1750636;81;21142;-69
2021/08/18 06:33:28;;;;;;;26.65;12.23;;;;;;;36.03;38.97;100474.69;1744722;81;21063;-70
2021/08/18 06:35:56;;;;;;;35.80;18.23;;;;;;;36.27;38.41;100469.65;1744642;81;20968;-70
2021/08/18 06:38:23;;;;;;;45.25;18.92;;;;;;;36.47;38.35;100468.90;1744504;80;20904;-69
2021/08/18 06:40:50;;;;;;;105.43;40.08;;;;;;;36.66;37.56;100470.09;1744696;81;20928;-70
2021/08/18 06:43:16;;;;;;;120.33;43.02;;;;;;;36.84;36.92;100467.91;1744646;82;21558;-70
2021/08/18 06:45:43;;;;;;;30.30;15.90;;;;;;;37.03;36.70;100462.20;1744563;82;20881;-69
2021/08/18 06:48:10;;;;;;;22.77;11.65;;;;;;;37.15;36.68;100459.21;1744576;82;21425;-69
2021/08/18 06:50:37;;;;;;;23.67;12.40;;;;;;;37.24;36.12;100464.95;1744626;82;20972;-71
2021/08/18 06:53:04;;;;;;;19.55;10.65;;;;;;;37.33;35.97;100456.47;1744530;81;21359;-69
2021/08/18 06:55:31;;;;;;;12.28;10.40;;;;;;;37.50;36.00;100454.27;1744545;80;21169;-69
2021/08/18 06:57:58;;;;;;;14.33;10.28;;;;;;;37.57;34.71;100454.56;1744651;82;20995;-67
2021/08/18 07:00:25;;;;;;;13.08;10.55;;;;;;;37.39;34.93;100445.80;1744868;82;20846;-68
2021/08/18 07:02:51;;;;;;;17.35;10.90;;;;;;;37.45;35.83;100452.10;1744934;81;20857;-67
2021/08/18 07:05:19;;;;;;;12.85;9.38;;;;;;;37.63;35.26;100448.00;1744684;80;20932;-68
2021/08/18 07:07:46;;;;;;;14.85;9.85;;;;;;;37.82;34.82;100450.42;1744603;81;21131;-69
2021/08/18 07:10:15;;;;;;;12.37;9.68;;;;;;;38.01;34.35;100444.33;1744557;80;21355;-68
2021/08/18 07:12:44;;;;;;;15.72;11.25;;;;;;;38.21;34.08;100439.34;1744483;82;20873;-69
2021/08/18 07:15:12;;;;;;;13.03;9.38;;;;;;;38.40;33.80;100436.77;1744681;80;20908;-69
2021/08/18 07:17:39;;;;;;;12.07;9.25;;;;;;;38.55;33.54;100433.44;1744666;82;21461;-69
2021/08/18 07:20:08;;;;;;;12.70;9.60;;;;;;;38.71;32.94;100434.15;1744638;80;21108;-70
2021/08/18 07:22:35;;;;;;;16.93;10.90;;;;;;;38.83;32.59;100426.92;1744597;81;20932;-68
2021/08/18 07:25:04;;;;;;;18.45;10.00;;;;;;;38.86;32.81;100427.72;1744677;82;20885;-68
2021/08/18 07:27:31;;;;;;;15.85;9.75;;;;;;;39.00;32.69;100421.61;1744263;82;20924;-68
2021/08/18 07:29:58;;;;;;;16.93;10.10;;;;;;;39.14;32.40;100417.92;1744631;82;20936;-71
2021/08/18 07:32:25;;;;;;;15.50;11.05;;;;;;;39.28;32.59;100421.36;1744442;82;21165;-70
2021/08/18 07:34:51;;;;;;;11.75;10.03;;;;;;;39.42;31.66;100418.78;1744589;81;20925;-70
2021/08/18 07:37:18;;;;;;;17.37;11.35;;;;;;;39.41;31.85;100413.85;1744528;82;20921;-69
2021/08/18 07:39:46;;;;;;;17.12;10.82;;;;;;;39.35;31.47;100412.23;1744495;82;21462;-68
2021/08/18 07:42:13;;;;;;;12.65;9.43;;;;;;;39.36;31.65;100411.95;1744537;82;20944;-69
2021/08/18 07:44:41;;;;;;;14.78;10.60;;;;;;;39.43;31.34;100408.89;1744610;80;22194;-69
2021/08/18 07:47:11;;;;;;;14.95;11.40;;;;;;;39.44;31.31;100412.45;1744429;81;20909;-69
2021/08/18 07:49:38;;;;;;;17.65;11.73;;;;;;;39.48;30.56;100408.83;1744661;82;21454;-70
2021/08/18 07:52:07;;;;;;;18.35;11.80;;;;;;;39.43;30.68;100410.27;1744495;82;21530;-68
2021/08/18 07:54:34;;;;;;;18.42;12.78;;;;;;;39.46;30.83;100405.55;1744585;81;20885;-68
2021/08/18 07:57:01;;;;;;;20.27;13.45;;;;;;;39.55;30.44;100402.44;1744554;82;21116;-68
2021/08/18 07:59:28;;;;;;;21.82;12.73;;;;;;;39.63;30.18;100398.81;1744486;81;20973;-69
2021/08/18 08:01:56;;;;;;;21.50;14.68;;;;;;;39.68;30.48;100394.62;1744514;82;20994;-73
2021/08/18 08:04:23;;;;;;;21.65;16.27;;;;;;;39.82;30.04;100400.22;1744591;82;21319;-71
2021/08/18 08:06:51;;;;;;;19.98;14.00;;;;;;;39.92;29.72;100394.64;1744327;81;20917;-70
2021/08/18 08:09:19;;;;;;;18.52;14.83;;;;;;;40.01;29.61;100394.80;1744526;82;21166;-70
2021/08/18 08:11:46;;;;;;;17.32;15.20;;;;;;;40.08;29.49;100387.82;1744529;82;21015;-70
2021/08/18 08:14:13;;;;;;;23.52;15.70;;;;;;;40.03;29.17;100393.39;1744860;82;21426;-69
2021/08/18 08:16:40;;;;;;;24.70;15.60;;;;;;;40.02;28.91;100383.50;1744455;82;20929;-70
2021/08/18 08:19:07;;;;;;;19.92;15.30;;;;;;;39.97;29.06;100383.02;1744641;81;21418;-71
2021/08/18 08:21:35;;;;;;;22.62;15.32;;;;;;;40.02;28.78;100376.63;1744420;81;21156;-68
2021/08/18 08:24:02;;;;;;;24.92;15.03;;;;;;;40.09;28.84;100375.73;1744522;82;20924;-68
2021/08/18 08:26:30;;;;;;;21.10;16.57;;;;;;;40.11;28.65;100379.00;1744458;81;20956;-69
2021/08/18 08:28:56;;;;;;;25.17;16.02;;;;;;;40.03;27.86;100375.54;1744557;82;20976;-69
2021/08/18 08:31:23;;;;;;;19.62;15.43;;;;;;;39.94;28.23;100367.70;1750409;81;20916;-69
2021/08/18 08:33:50;;;;;;;21.73;16.02;;;;;;;39.96;28.95;100366.85;1757903;80;21508;-69
2021/08/18 08:36:17;;;;;;;23.22;16.40;;;;;;;40.03;28.00;100365.92;1757787;81;20916;-69
2021/08/18 08:38:45;;;;;;;20.60;16.07;;;;;;;40.14;28.24;100363.86;1757962;81;20889;-69
2021/08/18 08:41:11;;;;;;;23.45;16.80;;;;;;;40.22;28.61;100359.61;1757842;81;20936;-69
2021/08/18 08:43:40;;;;;;;19.92;16.37;;;;;;;40.27;28.42;100359.02;1757945;81;20908;-70
2021/08/18 08:46:08;;;;;;;18.27;16.27;;;;;;;40.35;27.87;100356.95;1757433;81;22043;-69
2021/08/18 08:48:40;;;;;;;24.32;18.07;;;;;;;40.34;27.66;100353.16;1757835;81;20947;-70
2021/08/18 08:51:09;;;;;;;21.68;17.37;;;;;;;40.29;27.32;100355.95;1741634;81;20952;-71
2021/08/18 08:53:37;;;;;;;20.68;16.02;;;;;;;40.16;27.40;100354.77;1740960;81;21453;-71
2021/08/18 08:56:07;;;;;;;25.88;17.15;;;;;;;40.09;28.04;100348.80;1757860;81;20860;-71
2021/08/18 08:58:34;;;;;;;20.97;15.45;;;;;;;40.13;28.06;100345.72;1741416;81;21136;-70
2021/08/18 09:01:02;;;;;;;21.93;16.57;;;;;;;40.21;27.52;100345.06;1757709;80;21044;-70
2021/08/18 09:03:28;;;;;;;24.05;16.80;;;;;;;40.26;27.05;100340.05;1758068;81;20892;-70
2021/08/18 09:06:05;;;;;;;24.47;17.05;;;;;;;40.32;26.87;100331.45;1757870;80;21011;-71
2021/08/18 09:08:32;;;;;;;23.95;17.02;;;;;;;40.38;26.86;100331.64;1758238;80;20916;-71
2021/08/18 09:11:13;;;;;;;19.02;16.17;;;;;;;40.33;26.41;100322.11;1757955;81;21099;-71
2021/08/18 09:13:46;;;;;;;18.70;16.35;;;;;;;40.26;27.14;100318.06;1757805;81;20909;-71
2021/08/18 09:16:14;;;;;;;20.70;16.85;;;;;;;40.24;26.77;100323.84;1757869;81;20919;-71
2021/08/18 09:18:53;;;;;;;22.50;18.23;;;;;;;40.24;26.87;100319.72;1758133;80;20912;-71
2021/08/18 09:21:40;;;;;;;22.35;17.12;;;;;;;40.25;26.82;100318.63;1757809;81;20936;-70
2021/08/18 09:24:22;;;;;;;19.52;17.45;;;;;;;40.18;27.01;100321.75;1758216;81;21901;-70
2021/08/18 09:26:55;;;;;;;22.67;17.70;;;;;;;40.20;26.83;100313.22;1757874;81;21513;-70
2021/08/18 09:29:45;;;;;;;25.05;18.87;;;;;;;40.32;26.84;100306.72;1757656;81;20952;-71
2021/08/18 09:32:30;;;;;;;21.27;18.10;;;;;;;40.48;27.05;100306.47;1757806;81;20893;-69
2021/08/18 09:35:10;;;;;;;20.32;15.08;;;;;;;40.55;26.54;100301.41;1757904;81;20924;-73
2021/08/18 09:37:41;;;;;;;22.85;16.52;;;;;;;40.56;26.15;100297.55;1758214;80;21079;-72
2021/08/18 09:40:35;;;;;;;20.65;16.52;;;;;;;40.50;25.81;100302.30;1757250;81;20940;-72
2021/08/18 09:43:17;;;;;;;18.65;15.38;;;;;;;40.41;25.75;100299.98;1757814;81;20908;-73
2021/08/18 09:45:46;;;;;;;23.85;16.12;;;;;;;40.35;25.25;100293.74;1757728;81;20959;-72
2021/08/18 09:48:19;;;;;;;20.85;15.55;;;;;;;40.30;25.50;100296.58;1757830;80;20876;-72
2021/08/18 09:50:54;;;;;;;17.37;14.45;;;;;;;40.29;25.61;100300.45;1757914;80;21147;-71
2021/08/18 09:53:24;;;;;;;17.00;13.10;;;;;;;40.31;23.48;100294.11;1757931;80;20876;-71
2021/08/18 09:55:56;;;;;;;14.45;12.70;;;;;;;40.36;22.73;100295.39;1757721;80;20861;-71
2021/08/18 09:58:35;;;;;;;20.37;14.33;;;;;;;40.37;21.94;100294.83;1758204;81;20960;-72
2021/08/18 10:01:10;;;;;;;17.23;14.13;;;;;;;40.44;22.24;100290.32;1757947;80;20876;-72
2021/08/18 10:03:48;;;;;;;16.95;12.73;;;;;;;40.54;23.44;100290.16;1758128;81;21725;-72
2021/08/18 10:06:16;;;;;;;15.43;13.30;;;;;;;40.61;21.72;100290.58;1757523;81;20923;-74
2021/08/18 10:08:44;;;;;;;22.35;15.13;;;;;;;40.57;21.80;100288.98;1757914;80;21397;-75
2021/08/18 10:11:16;;;;;;;20.68;17.57;;;;;;;40.56;21.83;100279.68;1758028;80;20877;-74
2021/08/18 10:13:45;;;;;;;21.97;15.68;;;;;;;40.51;22.75;100281.13;1758064;80;22042;-73
2021/08/18 10:16:13;;;;;;;20.50;14.75;;;;;;;40.46;22.76;100283.41;1758004;81;21365;-74
2021/08/18 10:18:44;;;;;;;20.50;14.87;;;;;;;40.51;21.54;100281.13;1757935;80;20865;-72
2021/08/18 10:21:19;;;;;;;17.73;13.13;;;;;;;40.55;21.47;100275.28;1758223;81;20876;-75
2021/08/18 10:23:58;;;;;;;15.28;13.00;;;;;;;40.54;19.97;100274.48;1758262;80;20971;-73
2021/08/18 10:26:39;;;;;;;21.70;14.50;;;;;;;40.54;19.87;100264.85;1757928;81;20888;-75
2021/08/18 10:29:25;;;;;;;18.50;14.53;;;;;;;40.53;21.42;100268.73;1758243;81;21676;-75
2021/08/18 10:32:06;;;;;;;17.50;14.83;;;;;;;40.58;21.37;100263.70;1752788;81;20920;-75
2021/08/18 10:34:41;;;;;;;21.33;14.73;;;;;;;40.61;21.52;100272.14;1744493;81;20917;-73
2021/08/18 10:37:17;;;;;;;17.48;13.75;;;;;;;40.67;21.38;100263.26;1744565;81;22111;-76
2021/08/18 10:39:52;;;;;;;15.30;12.73;;;;;;;40.80;21.19;100256.16;1744593;80;20905;-73
2021/08/18 10:42:43;;;;;;;16.15;14.05;;;;;;;40.99;20.67;100258.27;1745022;81;21533;-71
2021/08/18 10:45:35;;;;;;;18.98;12.13;;;;;;;41.19;21.24;100259.83;1746319;82;21004;-72
2021/08/18 10:48:03;;;;;;;16.57;13.78;;;;;;;41.26;20.03;100257.23;1744620;81;20913;-73
2021/08/18 10:50:39;;;;;;;16.02;12.28;;;;;;;41.21;20.10;100255.41;1744337;81;20960;-73
2021/08/18 10:53:30;;;;;;;14.90;12.88;;;;;;;41.16;19.73;100248.08;1744697;81;21520;-73
2021/08/18 10:55:57;;;;;;;15.15;12.88;;;;;;;41.15;19.98;100245.62;1744905;81;21132;-73
2021/08/18 10:58:30;;;;;;;19.20;13.30;;;;;;;41.05;20.58;100245.81;1744883;82;20925;-74
2021/08/18 11:00:57;;;;;;;13.43;11.95;;;;;;;41.01;21.26;100248.34;1744571;81;20905;-69
2021/08/18 11:03:27;;;;;;;13.68;12.05;;;;;;;41.10;20.44;100236.87;1744712;82;20937;-68
2021/08/18 11:05:54;;;;;;;19.12;13.83;;;;;;;41.19;20.36;100241.13;1745060;82;20889;-70
2021/08/18 11:08:26;;;;;;;14.38;12.70;;;;;;;41.24;21.05;100230.58;1744737;82;21502;-72
2021/08/18 11:11:00;;;;;;;14.75;11.63;;;;;;;41.23;21.71;100238.59;1744904;81;20893;-72
2021/08/18 11:13:52;;;;;;;17.32;11.55;;;;;;;41.16;21.25;100230.75;1744559;82;20968;-73
2021/08/18 11:16:30;;;;;;;14.03;11.95;;;;;;;41.14;21.39;100231.05;1744583;81;21457;-75
2021/08/18 11:19:04;;;;;;;15.40;13.03;;;;;;;41.09;21.34;100228.92;1735164;82;21451;-73
2021/08/18 11:21:42;;;;;;;16.60;12.75;;;;;;;40.86;20.60;100230.20;1743056;81;21489;-73
2021/08/18 11:24:12;;;;;;;13.38;11.97;;;;;;;40.67;21.16;100227.52;1744343;81;20968;-72
2021/08/18 11:26:43;;;;;;;18.77;13.28;;;;;;;40.58;21.64;100224.64;1744630;82;20897;-71